Airfield :
LOGIN :

Register | Disclaimer

   EN    FR    IT 

 










Legend :    VFR   Marginal VFR   IFR   Intensive IFR   Very Intensive IFR
Visi :
Ceiling :
>= 8 km
>= 3000ft
5 to 8 km
1000 to 3000 ft
1500m to 5 km
500 to 1000 ft
800 to 1500m
200 to 500 ft
< 800m
< 200 ft
Symbols :   Thunderstorms  Fog  Heavy snow  Heavy precipitations  Wind > 20 kt
SIGMETs :     Misc.  Thunderstorms  Icing  Turbulence  Mountain Waves  Volcanic Ashes






- Airport Elevation : 83 ft
- IATA code : LHR


EGLL - London Heathrow

CURRENT METAR :
  • 271120Z AUTO 34010KT 300V020 9999 BKN011 05/02 Q0999 BECMG SCT016

EXPIRED METARs :
  • 271050Z AUTO 34007KT 300V040 9999 SCT008 BKN013 BKN022 04/02 Q0999
  • 271020Z AUTO 34006KT 290V020 9999 -RA SCT007 BKN016 BKN023 03/01 Q0998 NOSIG
  • 270950Z 35006KT 320V030 9000 -RA SCT005 BKN009 BKN016 02/01 Q0998 RESN
  • 270920Z 36006KT 320V030 7000 -RASN SCT004 BKN010 02/01 Q0997 TEMPO BKN004
  • 270850Z AUTO 36006KT 330V040 4500 -RASN BKN004/// OVC008/// //////TCU 02/01 Q0996 RESN RERA

TAF TAF EGLL
Valid from the 27 at 06:00 until the 28 at 12:00 UTC


270458Z 2706/2812 14005KT 9999 -RA BKN014
TEMPO 2706/2711 4000 RADZ BKN009
BECMG 2707/2710 35010KT
PROB40
TEMPO 2708/2712 RASN
BECMG 2710/2713 33015G25KT FEW030
BECMG 2716/2719 28010KT
BECMG 2800/2803 20006KT
BECMG 2807/2810 18015G25KT BKN010
TEMPO 2810/2812 4000 RA BKN006



MET'MAP, your aeronautical weather chart ! - Copyright ORBIFLY December 2007 - Disclaimer

ORBIFLY MET'MAP TEAM :

Programming & Development : Alexandra Zaïnal
Concept & original design : Baudouin d'Aumeries
Assistance for programming : Marc-Olivier Méhu
Technical & hardware support : Manuel Goepfert

Contact : metmap@orbifly.com




SOURCES & CREDITS :

   NOAA